Time;durP1;ratioP1;P1;durP2;ratioP2;P2;SDS_P1;SDS_P2;PMS_P1;PMS_P2;Temp;Humidity;BMP_temperature;BMP_pressure;BME280_temperature;BME280_humidity;BME280_pressure;Samples;Min_cycle;Max_cycle;Signal;HPM_P1;HPM_P2
2022/09/19 00:01:24;;;;;;;6.47;3.10;;;;;;;8.03;84.50;94909.31;4992234;28;20177;-74
2022/09/19 00:04:26;;;;;;;4.37;3.33;;;;;;;8.13;85.30;94912.34;4992277;28;20180;-74
2022/09/19 00:06:53;;;;;;;5.13;3.53;;;;;;;8.13;85.01;94914.19;4972118;28;20226;-74
2022/09/19 00:09:21;;;;;;;7.63;3.53;;;;;;;8.02;85.52;94896.38;4992221;28;20204;-75
2022/09/19 00:11:48;;;;;;;8.53;3.60;;;;;;;8.02;85.43;94905.06;4992369;28;20244;-74
2022/09/19 00:14:16;;;;;;;8.93;3.90;;;;;;;8.01;85.55;94898.19;4992145;28;20228;-74
2022/09/19 00:16:44;;;;;;;5.37;3.60;;;;;;;7.88;85.92;94875.34;4992120;28;20260;-74
2022/09/19 00:19:16;;;;;;;12.43;3.67;;;;;;;8.01;85.66;94889.53;4974487;28;20180;-74
2022/09/19 00:21:44;;;;;;;5.23;3.40;;;;;;;7.84;85.78;94874.13;4992097;28;20243;-74
2022/09/19 00:26:57;;;;;;;5.20;3.57;;;;;;;8.00;86.09;94893.13;4992015;28;20219;-74
2022/09/19 00:29:23;;;;;;;5.90;3.90;;;;;;;7.95;85.77;94886.69;4991713;28;20209;-74
2022/09/19 00:31:50;;;;;;;8.47;3.63;;;;;;;7.97;85.93;94889.91;4991875;28;20238;-75
2022/09/19 00:34:17;;;;;;;9.37;3.37;;;;;;;7.91;85.82;94879.38;4991648;28;20174;-74
2022/09/19 00:36:43;;;;;;;5.00;3.40;;;;;;;7.91;85.52;94882.81;4991761;28;20173;-75
2022/09/19 00:39:10;;;;;;;10.93;3.40;;;;;;;7.92;85.71;94897.53;4991646;28;20553;-74
2022/09/19 00:41:36;;;;;;;6.67;3.83;;;;;;;7.67;85.68;94854.47;4991570;28;20172;-75
2022/09/19 00:44:03;;;;;;;16.17;3.80;;;;;;;7.88;86.10;94893.69;4991635;28;20173;-74
2022/09/19 00:46:32;;;;;;;9.83;4.30;;;;;;;7.88;85.59;94898.91;4991513;28;20173;-75
2022/09/19 00:49:02;;;;;;;6.77;3.90;;;;;;;7.87;85.68;94884.19;4991410;28;20216;-75
2022/09/19 00:51:34;;;;;;;8.83;4.23;;;;;;;7.88;86.02;94900.72;4991370;28;20173;-74
2022/09/19 00:54:15;;;;;;;4.03;3.03;;;;;;;7.84;85.10;94905.56;4991379;28;20188;-74
2022/09/19 00:56:54;;;;;;;12.03;4.53;;;;;;;7.81;85.62;94900.69;4991539;28;20663;-75
2022/09/19 00:59:23;;;;;;;7.90;3.43;;;;;;;7.76;85.09;94895.25;4991421;28;20176;-75
2022/09/19 01:01:51;;;;;;;4.77;2.73;;;;;;;7.75;85.33;94892.81;4991373;28;20165;-75
2022/09/19 01:04:22;;;;;;;3.53;2.70;;;;;;;7.67;85.90;94888.53;4991506;28;20184;-75
2022/09/19 01:06:55;;;;;;;5.17;2.97;;;;;;;7.65;86.10;94885.28;4991367;28;20589;-75
2022/09/19 01:09:54;;;;;;;3.93;2.70;;;;;;;7.67;86.20;94887.72;4991274;28;20209;-75
2022/09/19 01:12:47;;;;;;;4.13;2.70;;;;;;;7.66;86.02;94886.91;4991564;28;20173;-75
2022/09/19 01:15:19;;;;;;;5.83;3.13;;;;;;;7.66;85.98;94889.53;4971884;28;20280;-75
2022/09/19 01:17:51;;;;;;;6.83;3.10;;;;;;;7.54;86.11;94884.00;4972011;28;20172;-75
2022/09/19 01:20:48;;;;;;;3.30;2.73;;;;;;;7.46;86.95;94885.94;4975368;28;20188;-75
2022/09/19 01:23:41;;;;;;;3.60;2.50;;;;;;;7.53;86.93;94884.19;4975814;28;20565;-75
2022/09/19 01:26:37;;;;;;;5.67;2.70;;;;;;;7.60;86.56;94886.88;4975688;28;20184;-75
2022/09/19 01:29:13;;;;;;;4.23;3.00;;;;;;;7.56;85.69;94882.00;4975629;28;20224;-75
2022/09/19 01:31:44;;;;;;;4.87;2.70;;;;;;;7.55;86.16;94876.94;4975751;28;20206;-75
2022/09/19 01:34:18;;;;;;;4.53;2.77;;;;;;;7.53;85.90;94877.13;4975686;28;20675;-75
2022/09/19 01:36:48;;;;;;;6.60;3.13;;;;;;;7.53;85.77;94874.50;4975612;28;20177;-75
2022/09/19 01:39:17;;;;;;;3.10;2.80;;;;;;;7.41;86.31;94872.63;4975586;28;20556;-75
2022/09/19 01:41:54;;;;;;;8.07;3.23;;;;;;;7.30;86.51;94878.38;4975379;28;20174;-75
2022/09/19 01:44:23;;;;;;;6.97;3.10;;;;;;;7.27;86.48;94879.56;4975536;28;20204;-75
2022/09/19 01:47:23;;;;;;;5.30;3.10;;;;;;;7.26;87.03;94879.78;4975409;28;20301;-75
2022/09/19 01:50:07;;;;;;;6.83;3.37;;;;;;;7.32;86.39;94885.06;4952737;28;20213;-75
2022/09/19 01:53:05;;;;;;;8.27;3.50;;;;;;;7.20;86.15;94852.53;4975247;28;20197;-75
2022/09/19 01:55:39;;;;;;;4.70;3.27;;;;;;;7.35;86.20;94873.41;4975203;28;20252;-75
2022/09/19 01:58:09;;;;;;;6.23;3.50;;;;;;;7.34;86.04;94877.00;4973888;28;20188;-75
2022/09/19 02:00:41;;;;;;;3.83;2.70;;;;;;;7.29;86.03;94879.38;4975165;28;20740;-75
2022/09/19 02:03:28;;;;;;;3.40;2.40;;;;;;;7.33;85.68;94870.16;4975061;28;20166;-75
2022/09/19 02:06:03;;;;;;;6.37;3.17;;;;;;;7.27;85.71;94878.75;4975095;28;20217;-75
2022/09/19 02:08:50;;;;;;;4.90;3.30;;;;;;;7.28;86.15;94873.31;4974962;28;20173;-75
2022/09/19 02:11:22;;;;;;;4.97;2.70;;;;;;;7.30;85.93;94876.56;4974560;28;20182;-75
2022/09/19 02:14:07;;;;;;;3.53;2.50;;;;;;;7.27;85.79;94865.66;4984115;28;20676;-75
2022/09/19 02:16:47;;;;;;;4.30;2.87;;;;;;;7.22;85.86;94865.44;4994274;28;20256;-75
2022/09/19 02:19:18;;;;;;;6.63;2.50;;;;;;;7.19;85.92;94866.59;4977281;28;20224;-75
2022/09/19 02:21:52;;;;;;;7.70;2.77;;;;;;;7.13;86.31;94870.81;4994186;28;20260;-75
2022/09/19 02:24:23;;;;;;;6.43;2.67;;;;;;;7.13;85.90;94862.13;4994163;28;20179;-75
2022/09/19 02:26:51;;;;;;;5.33;2.57;;;;;;;7.05;86.13;94855.25;4994083;28;20177;-75
2022/09/19 02:29:20;;;;;;;4.70;2.73;;;;;;;7.11;86.00;94859.72;4977526;28;20198;-75
2022/09/19 02:31:46;;;;;;;4.53;3.10;;;;;;;7.14;86.64;94861.97;4974362;28;20185;-75
2022/09/19 02:34:12;;;;;;;5.47;2.60;;;;;;;7.17;86.46;94863.41;4974309;28;20196;-75
2022/09/19 02:36:52;;;;;;;6.23;2.80;;;;;;;7.08;86.10;94846.22;4957165;28;20260;-75
2022/09/19 02:39:18;;;;;;;4.73;3.20;;;;;;;7.11;86.44;94849.25;4974010;28;20190;-75
2022/09/19 02:42:00;;;;;;;3.47;2.83;;;;;;;7.08;85.98;94843.59;4987424;28;20179;-75
2022/09/19 02:44:32;;;;;;;3.40;2.60;;;;;;;7.13;86.35;94854.28;4993954;28;20236;-75
2022/09/19 02:47:21;;;;;;;6.13;2.93;;;;;;;7.07;86.43;94861.09;4992908;28;20648;-75
2022/09/19 02:50:10;;;;;;;7.03;2.73;;;;;;;7.00;86.14;94856.81;4975540;28;20212;-75
2022/09/19 02:52:38;;;;;;;5.63;3.47;;;;;;;7.02;86.30;94855.59;4993184;28;20589;-75
2022/09/19 02:55:12;;;;;;;4.73;2.87;;;;;;;6.86;86.42;94839.38;4993623;28;20263;-75
2022/09/19 02:57:41;;;;;;;6.37;3.30;;;;;;;6.86;86.33;94841.97;4993578;28;20184;-75
2022/09/19 03:00:07;;;;;;;5.77;3.10;;;;;;;6.87;86.94;94852.25;4993599;28;20529;-75
2022/09/19 03:02:37;;;;;;;10.13;3.97;;;;;;;6.81;86.44;94839.94;4993587;28;20214;-75
2022/09/19 03:05:09;;;;;;;8.60;5.20;;;;;;;6.74;86.32;94833.84;4993674;28;20251;-75
2022/09/19 03:07:45;;;;;;;8.47;4.93;;;;;;;6.93;86.41;94855.91;4993539;28;20259;-76
2022/09/19 03:10:13;;;;;;;9.50;4.83;;;;;;;6.94;86.50;94860.97;4993447;28;20204;-75
2022/09/19 03:12:57;;;;;;;8.50;4.60;;;;;;;6.84;85.92;94852.63;4993391;28;20251;-76
2022/09/19 03:15:49;;;;;;;5.50;3.47;;;;;;;6.86;86.13;94858.50;5013004;28;20184;-75
2022/09/19 03:18:18;;;;;;;8.60;3.70;;;;;;;6.69;86.83;94837.00;5012892;28;20172;-76
2022/09/19 03:20:53;;;;;;;5.93;3.80;;;;;;;6.74;87.38;94854.78;5012520;28;20592;-76
2022/09/19 03:23:27;;;;;;;5.20;3.70;;;;;;;6.74;86.81;94855.59;5012467;28;20167;-76
2022/09/19 03:25:53;;;;;;;7.53;4.23;;;;;;;6.65;86.82;94840.19;5012402;28;20191;-76
2022/09/19 03:28:21;;;;;;;6.17;4.00;;;;;;;6.75;86.34;94857.16;4994747;28;20168;-76
2022/09/19 03:30:46;;;;;;;10.50;3.57;;;;;;;6.62;86.57;94845.78;5012386;28;20283;-76
2022/09/19 03:33:15;;;;;;;7.30;3.60;;;;;;;6.74;86.48;94865.22;5012680;28;20673;-76
2022/09/19 03:35:42;;;;;;;12.50;3.30;;;;;;;6.77;86.90;94854.38;5012341;28;20656;-76
2022/09/19 03:38:08;;;;;;;4.50;3.10;;;;;;;6.69;87.03;94852.69;5012190;28;20219;-73
2022/09/19 03:40:34;;;;;;;10.83;5.77;;;;;;;6.71;87.49;94845.47;5005078;28;20204;-73
2022/09/19 03:42:59;;;;;;;8.87;4.73;;;;;;;6.63;87.30;94837.75;4990110;28;20181;-73
2022/09/19 03:45:25;;;;;;;5.37;4.33;;;;;;;6.69;87.74;94842.25;5003002;28;20731;-73
2022/09/19 03:47:50;;;;;;;7.97;4.93;;;;;;;6.65;87.64;94824.50;5012062;28;20169;-73
2022/09/19 03:50:17;;;;;;;8.97;6.80;;;;;;;6.73;87.39;94829.59;5011857;28;20278;-73
2022/09/19 03:52:44;;;;;;;14.67;7.23;;;;;;;6.77;86.78;94833.44;5010609;28;20180;-73
2022/09/19 03:55:09;;;;;;;18.00;7.47;;;;;;;6.61;86.93;94810.16;4975021;28;20572;-73
2022/09/19 03:57:34;;;;;;;10.73;7.03;;;;;;;6.74;87.03;94833.84;4979227;28;20196;-73
2022/09/19 04:00:00;;;;;;;14.40;6.90;;;;;;;6.55;86.91;94797.84;4980563;28;20178;-73
2022/09/19 04:02:26;;;;;;;13.57;5.90;;;;;;;6.67;85.82;94805.00;4982735;28;20245;-73
2022/09/19 04:04:54;;;;;;;8.63;6.00;;;;;;;6.63;86.24;94811.63;4988334;28;20728;-75
2022/09/19 04:07:21;;;;;;;9.33;6.47;;;;;;;6.70;86.13;94822.13;5001286;28;20179;-76
2022/09/19 04:09:46;;;;;;;7.70;5.83;;;;;;;6.65;86.79;94814.84;5011986;28;20938;-75
2022/09/19 04:12:12;;;;;;;12.67;7.23;;;;;;;6.58;86.93;94819.19;5008450;28;20173;-76
2022/09/19 04:14:38;;;;;;;9.87;6.90;;;;;;;6.43;87.10;94803.56;4992117;28;20262;-76
2022/09/19 04:17:06;;;;;;;11.57;6.93;;;;;;;6.41;86.96;94813.41;4992085;28;20636;-76
2022/09/19 04:19:32;;;;;;;11.23;6.43;;;;;;;6.54;87.03;94836.25;4992043;28;20186;-75
2022/09/19 04:21:59;;;;;;;15.83;6.70;;;;;;;6.49;87.15;94809.06;4991968;28;20231;-76
2022/09/19 04:24:25;;;;;;;13.10;7.07;;;;;;;6.52;86.60;94812.09;4991920;28;20265;-76
2022/09/19 04:26:50;;;;;;;13.63;6.60;;;;;;;6.65;87.07;94827.13;4991627;28;20256;-75
2022/09/19 04:29:16;;;;;;;17.87;7.57;;;;;;;6.68;86.93;94829.34;4982187;28;20251;-76
2022/09/19 04:31:41;;;;;;;17.97;7.97;;;;;;;6.70;86.90;94827.34;4991872;28;20551;-76
2022/09/19 04:34:08;;;;;;;12.93;7.40;;;;;;;6.68;86.76;94813.66;4991878;28;20169;-75
2022/09/19 04:36:34;;;;;;;23.60;7.40;;;;;;;6.88;86.18;94830.34;4983820;28;20184;-75
2022/09/19 04:39:03;;;;;;;13.60;7.90;;;;;;;6.97;86.21;94831.00;4991799;28;20173;-75
2022/09/19 04:41:34;;;;;;;14.07;7.03;;;;;;;6.98;85.83;94828.22;4990211;28;20184;-75
2022/09/19 04:44:00;;;;;;;16.97;7.90;;;;;;;7.01;86.29;94822.56;4991514;28;20169;-74
2022/09/19 04:46:27;;;;;;;12.70;7.80;;;;;;;7.06;86.26;94829.88;4991445;28;20315;-73
2022/09/19 04:48:54;;;;;;;15.07;7.80;;;;;;;7.08;86.68;94810.38;4991388;28;20227;-72
2022/09/19 04:51:20;;;;;;;15.33;8.10;;;;;;;7.28;86.32;94822.78;4991327;28;20175;-72
2022/09/19 04:53:46;;;;;;;23.03;7.50;;;;;;;7.51;86.50;94821.53;4990448;28;20213;-75
2022/09/19 04:56:11;;;;;;;17.40;7.97;;;;;;;7.68;85.71;94790.59;4991624;28;20192;-75
2022/09/19 04:58:40;;;;;;;24.20;8.73;;;;;;;8.15;84.37;94829.09;5006187;28;20191;-75
2022/09/19 05:01:07;;;;;;;22.50;8.50;;;;;;;8.41;83.44;94825.75;4990637;28;20585;-75
2022/09/19 05:03:33;;;;;;;23.10;7.73;;;;;;;9.22;84.48;94829.09;4968689;28;20185;-75
2022/09/19 05:06:00;;;;;;;25.10;7.03;;;;;;;11.10;79.21;94822.69;4995166;28;20185;-75
2022/09/19 05:08:28;;;;;;;14.47;5.83;;;;;;;13.44;69.64;94841.44;4990588;28;20180;-75
2022/09/19 05:10:55;;;;;;;15.07;5.77;;;;;;;15.56;61.65;94846.75;4990767;28;20236;-75
2022/09/19 05:13:25;;;;;;;14.13;5.13;;;;;;;17.25;55.75;94839.59;4990594;28;20228;-74
2022/09/19 05:15:51;;;;;;;12.23;4.85;;;;;;;18.81;51.27;94848.88;5004939;28;20184;-73
2022/09/19 05:18:21;;;;;;;18.48;4.57;;;;;;;19.96;47.79;94842.09;5010705;28;20180;-74
2022/09/19 05:20:52;;;;;;;11.25;3.97;;;;;;;21.03;45.34;94842.53;5010695;28;20635;-73
2022/09/19 05:23:17;;;;;;;11.57;4.78;;;;;;;21.95;43.47;94850.75;4994175;28;20177;-74
2022/09/19 05:25:43;;;;;;;18.00;5.75;;;;;;;22.52;41.82;94851.81;5010911;28;20948;-74
2022/09/19 05:28:09;;;;;;;11.55;6.00;;;;;;;23.18;40.73;94853.72;5010704;28;20207;-74
2022/09/19 05:30:37;;;;;;;19.52;6.32;;;;;;;23.68;39.48;94855.72;5010604;28;20657;-74
2022/09/19 05:33:03;;;;;;;15.68;5.15;;;;;;;24.26;37.91;94865.25;5010678;28;20263;-74
2022/09/19 05:35:30;;;;;;;9.38;4.85;;;;;;;24.68;37.13;94869.59;5010661;28;20181;-74
2022/09/19 05:37:57;;;;;;;10.23;4.85;;;;;;;25.11;36.61;94864.72;5010707;28;20176;-74
2022/09/19 05:40:23;;;;;;;15.18;4.20;;;;;;;25.46;35.27;94841.56;5010727;28;20606;-74
2022/09/19 05:42:50;;;;;;;12.57;4.35;;;;;;;25.96;33.86;94861.19;5010491;28;20765;-74
2022/09/19 05:45:20;;;;;;;6.15;2.95;;;;;;;26.35;31.71;94862.41;5010493;28;20263;-74
2022/09/19 05:47:46;;;;;;;71.35;43.88;;;;;;;26.91;32.43;94851.69;5010743;28;20207;-74
2022/09/19 05:50:13;;;;;;;62.83;39.17;;;;;;;27.44;31.16;94861.50;5010217;28;20291;-74
2022/09/19 05:55:26;;;;;;;18.23;11.75;;;;;;;28.03;29.35;94849.09;5010557;28;20211;-74
2022/09/19 05:57:57;;;;;;;32.50;19.85;;;;;;;28.37;28.74;94859.09;5010597;28;20699;-76
2022/09/19 06:00:27;;;;;;;27.17;16.98;;;;;;;28.60;28.82;94862.41;5010877;28;20204;-77
2022/09/19 06:03:03;;;;;;;18.45;9.45;;;;;;;28.86;27.82;94859.59;5010432;28;20564;-75
2022/09/19 06:05:33;;;;;;;6.13;3.90;;;;;;;29.20;26.83;94848.56;5012609;28;20176;-75
2022/09/19 06:07:59;;;;;;;6.47;4.47;;;;;;;29.03;27.12;94856.00;5014039;28;20176;-74
2022/09/19 06:10:26;;;;;;;6.47;3.25;;;;;;;29.28;26.33;94852.34;5013816;28;20196;-75
2022/09/19 06:12:55;;;;;;;8.32;3.42;;;;;;;29.59;25.43;94860.94;5005786;28;20540;-74
2022/09/19 06:15:21;;;;;;;8.57;2.63;;;;;;;29.82;25.40;94868.75;5014007;28;20192;-75
2022/09/19 06:17:53;;;;;;;5.18;2.85;;;;;;;29.66;24.80;94859.63;5012765;28;20185;-74
2022/09/19 06:20:19;;;;;;;6.30;2.80;;;;;;;29.55;24.72;94862.75;5013951;28;20176;-74
2022/09/19 06:22:44;;;;;;;4.90;3.13;;;;;;;29.41;24.82;94832.34;5013873;28;20172;-75
2022/09/19 06:25:09;;;;;;;4.82;2.88;;;;;;;29.38;24.92;94856.63;5010620;28;20176;-75
2022/09/19 06:27:38;;;;;;;5.90;3.25;;;;;;;29.46;25.42;94862.00;5013613;28;20168;-76
2022/09/19 06:30:05;;;;;;;5.95;2.50;;;;;;;29.02;25.32;94855.22;5013609;28;20254;-76
2022/09/19 06:32:31;;;;;;;4.43;2.92;;;;;;;28.16;26.75;94850.09;5013140;28;20235;-75
2022/09/19 06:34:56;;;;;;;5.47;3.38;;;;;;;28.01;26.07;94858.69;5013474;28;20168;-75
2022/09/19 06:37:21;;;;;;;6.05;2.60;;;;;;;27.36;27.05;94841.47;5013499;28;20196;-75
2022/09/19 06:39:47;;;;;;;5.47;2.70;;;;;;;26.78;28.19;94858.00;5012957;28;20593;-76
2022/09/19 06:42:12;;;;;;;7.85;3.13;;;;;;;26.02;29.74;94859.19;5013128;28;20191;-76
2022/09/19 06:44:38;;;;;;;6.50;3.67;;;;;;;25.60;30.28;94847.75;5013339;28;20198;-75
2022/09/19 06:47:05;;;;;;;23.60;12.85;;;;;;;24.64;31.99;94844.38;5013347;28;20198;-76
2022/09/19 06:49:30;;;;;;;6.88;4.65;;;;;;;23.91;33.34;94845.13;5012984;28;20192;-76
2022/09/19 06:51:56;;;;;;;8.23;3.33;;;;;;;23.35;35.18;94840.59;5013036;28;20245;-74
2022/09/19 06:54:23;;;;;;;8.35;2.88;;;;;;;23.36;35.62;94842.16;5012839;28;20168;-75
2022/09/19 06:56:49;;;;;;;5.85;2.95;;;;;;;22.27;35.17;94809.19;5013229;28;20499;-74
2022/09/19 06:59:16;;;;;;;5.07;3.30;;;;;;;21.30;38.55;94807.31;5013183;28;20165;-76
2022/09/19 07:01:42;;;;;;;5.30;2.75;;;;;;;20.49;39.25;94790.91;5013230;28;20195;-75
2022/09/19 07:04:07;;;;;;;9.13;3.22;;;;;;;20.10;41.74;94815.59;5013632;28;20168;-76
2022/09/19 07:06:35;;;;;;;5.10;3.40;;;;;;;19.65;41.80;94829.00;5013554;28;20218;-76
2022/09/19 07:09:05;;;;;;;8.68;2.97;;;;;;;19.28;43.92;94832.72;5013089;28;20172;-76
2022/09/19 07:11:31;;;;;;;5.15;3.33;;;;;;;18.77;43.31;94813.91;4995582;28;20177;-76
2022/09/19 07:13:57;;;;;;;5.00;3.10;;;;;;;18.73;44.96;94828.03;5013249;28;20220;-75
2022/09/19 07:16:22;;;;;;;10.00;3.58;;;;;;;18.71;43.64;94822.97;5011680;28;20290;-76
2022/09/19 07:18:48;;;;;;;5.70;3.40;;;;;;;18.42;45.43;94822.56;5012757;28;20744;-75
2022/09/19 07:21:13;;;;;;;6.95;4.30;;;;;;;18.72;47.09;94821.09;4996082;28;20188;-76
2022/09/19 07:23:39;;;;;;;7.28;4.18;;;;;;;18.70;43.88;94817.88;5013394;28;20173;-77
2022/09/19 07:26:04;;;;;;;8.38;3.90;;;;;;;18.67;45.00;94824.56;5013472;28;20259;-76
2022/09/19 07:28:30;;;;;;;14.60;4.05;;;;;;;18.78;44.62;94809.38;5013596;28;20172;-77
2022/09/19 07:30:58;;;;;;;8.38;3.38;;;;;;;18.73;42.34;94802.19;5013375;28;20705;-77
2022/09/19 07:33:24;;;;;;;5.93;3.40;;;;;;;18.87;44.47;94818.47;5012816;28;20177;-77
2022/09/19 07:35:53;;;;;;;11.57;3.90;;;;;;;19.08;45.51;94814.78;5013137;28;20180;-76
2022/09/19 07:38:20;;;;;;;5.28;3.20;;;;;;;18.96;43.04;94819.56;5013304;28;20168;-77
2022/09/19 07:40:46;;;;;;;5.22;3.53;;;;;;;19.14;43.25;94820.94;5013070;28;20626;-77
2022/09/19 07:43:13;;;;;;;6.53;2.90;;;;;;;19.39;43.51;94817.47;4995776;28;20182;-77
2022/09/19 07:45:45;;;;;;;6.55;3.60;;;;;;;19.53;42.91;94803.38;5013113;28;20176;-77
2022/09/19 07:48:12;;;;;;;7.53;3.28;;;;;;;19.69;42.91;94793.47;5013131;28;20340;-76
2022/09/19 07:50:37;;;;;;;7.38;2.95;;;;;;;19.46;40.30;94796.69;4991757;28;20218;-76
2022/09/19 07:53:10;;;;;;;3.97;2.83;;;;;;;19.37;43.13;94806.28;4973886;28;20188;-76
2022/09/19 07:55:35;;;;;;;7.35;3.58;;;;;;;19.36;42.63;94796.69;4991275;28;20188;-76
2022/09/19 07:58:03;;;;;;;7.88;3.20;;;;;;;19.63;43.02;94783.88;4989940;28;20701;-76
2022/09/19 08:00:30;;;;;;;4.93;3.40;;;;;;;19.43;41.20;94795.34;4989589;28;20211;-76
2022/09/19 08:03:01;;;;;;;6.50;3.42;;;;;;;19.32;42.20;94796.41;5001557;28;20188;-75
2022/09/19 08:05:31;;;;;;;4.18;2.85;;;;;;;18.79;40.85;94786.97;4975125;28;20244;-76
2022/09/19 08:07:57;;;;;;;7.40;3.03;;;;;;;18.90;40.19;94775.28;4992310;28;20255;-75
2022/09/19 08:10:23;;;;;;;3.28;2.55;;;;;;;19.14;40.59;94788.91;4988226;28;20284;-76
2022/09/19 08:12:48;;;;;;;20.42;11.43;;;;;;;19.50;43.30;94795.09;4986803;28;20604;-78
2022/09/19 08:15:17;;;;;;;3.38;2.67;;;;;;;19.35;40.72;94761.16;4973453;28;20237;-76
2022/09/19 08:17:54;;;;;;;8.52;4.90;;;;;;;19.69;43.18;94780.13;4973308;28;20185;-76
2022/09/19 08:20:19;;;;;;;5.97;3.92;;;;;;;20.15;41.52;94777.38;4973106;28;20177;-77
2022/09/19 08:22:45;;;;;;;9.38;4.03;;;;;;;20.37;42.23;94759.13;4973267;28;20184;-77
2022/09/19 08:25:10;;;;;;;5.57;3.78;;;;;;;20.88;41.14;94778.38;4973151;28;20251;-77
2022/09/19 08:27:37;;;;;;;5.43;3.15;;;;;;;21.17;38.44;94780.34;4979879;28;20678;-78
2022/09/19 08:30:04;;;;;;;8.55;3.17;;;;;;;20.54;41.28;94774.81;4978225;28;20208;-76
2022/09/19 08:32:29;;;;;;;5.70;3.03;;;;;;;20.65;39.78;94773.72;4975040;28;20626;-76
2022/09/19 08:34:55;;;;;;;6.47;3.10;;;;;;;20.68;39.55;94771.25;4989139;28;20183;-76
2022/09/19 08:37:21;;;;;;;5.15;2.83;;;;;;;20.67;40.20;94775.00;4992060;28;20177;-76
2022/09/19 08:42:41;;;;;;;10.80;3.55;;;;;;;20.10;39.48;94761.31;4989428;28;20184;-75
2022/09/19 08:45:17;;;;;;;5.05;2.95;;;;;;;20.06;39.25;94760.28;4974588;28;20650;-75
2022/09/19 08:47:44;;;;;;;7.43;2.90;;;;;;;19.90;40.64;94768.31;4991897;28;20215;-75
2022/09/19 08:50:20;;;;;;;8.38;2.90;;;;;;;19.90;40.35;94762.97;4991731;28;20216;-75
2022/09/19 08:52:49;;;;;;;6.35;2.90;;;;;;;20.12;40.35;94770.69;4991700;28;20636;-76
2022/09/19 08:55:22;;;;;;;5.00;3.17;;;;;;;20.18;40.83;94769.59;4984906;28;20185;-75
2022/09/19 08:58:00;;;;;;;9.02;3.78;;;;;;;20.62;41.40;94767.03;4986283;28;20305;-75
2022/09/19 09:00:32;;;;;;;6.82;3.50;;;;;;;20.83;41.16;94769.59;4988081;28;20177;-75
2022/09/19 09:03:03;;;;;;;6.50;3.17;;;;;;;20.93;40.26;94748.13;4991805;28;20275;-75
2022/09/19 09:05:55;;;;;;;6.53;3.17;;;;;;;21.03;38.47;94758.75;4990341;28;20181;-75
2022/09/19 09:08:54;;;;;;;11.20;3.60;;;;;;;21.19;40.92;94762.94;4991930;28;20955;-76
2022/09/19 09:11:42;;;;;;;9.13;4.05;;;;;;;21.32;40.01;94756.97;4986103;28;20206;-76
2022/09/19 09:14:29;;;;;;;11.88;3.50;;;;;;;21.35;41.14;94753.75;4991815;28;20253;-75
2022/09/19 09:16:57;;;;;;;7.15;3.30;;;;;;;21.20;39.99;94753.03;4988597;28;20200;-75
2022/09/19 09:19:43;;;;;;;11.65;4.03;;;;;;;21.17;39.20;94750.91;4991670;28;20177;-76
2022/09/19 09:22:18;;;;;;;6.60;3.15;;;;;;;20.90;38.19;94751.34;4991110;28;20181;-74
2022/09/19 09:24:51;;;;;;;6.53;3.80;;;;;;;20.81;40.87;94734.28;4989358;28;20188;-75
2022/09/19 09:27:22;;;;;;;10.95;3.80;;;;;;;20.18;40.41;94736.69;4987773;28;20182;-76
2022/09/19 09:29:53;;;;;;;8.27;3.17;;;;;;;19.86;41.10;94732.53;4993415;28;20207;-78
2022/09/19 09:32:43;;;;;;;8.35;3.65;;;;;;;19.88;44.08;94713.56;4983863;28;20179;-75
2022/09/19 09:35:41;;;;;;;9.40;3.20;;;;;;;19.84;41.01;94705.28;4991310;28;20220;-75
2022/09/19 09:38:32;;;;;;;9.10;3.70;;;;;;;20.01;40.89;94704.97;4977875;28;20200;-75
2022/09/19 09:44:15;;;;;;;8.75;3.08;;;;;;;20.12;39.31;94701.19;4995601;28;20287;-79
2022/09/19 09:46:49;;;;;;;5.88;2.67;;;;;;;19.88;39.66;94705.56;4994472;28;20184;-75
2022/09/19 09:49:15;;;;;;;6.20;2.65;;;;;;;19.72;40.71;94701.34;4992161;28;20188;-76
2022/09/19 09:51:51;;;;;;;6.20;2.58;;;;;;;19.65;42.52;94672.22;4988124;28;20185;-76
2022/09/19 09:57:32;;;;;;;10.65;2.55;;;;;;;19.32;41.84;94688.81;4978469;28;20261;-76
2022/09/19 10:06:03;;;;;;;5.88;2.70;;;;;;;18.90;42.85;94660.56;4974593;28;20174;-74
2022/09/19 10:08:44;;;;;;;7.43;2.55;;;;;;;19.06;41.82;94667.47;4975027;28;20177;-75
2022/09/19 10:11:17;;;;;;;5.45;2.80;;;;;;;19.11;41.87;94675.47;4991648;28;20200;-76
2022/09/19 10:13:51;;;;;;;9.57;2.90;;;;;;;19.18;41.04;94665.34;4994923;28;20228;-76
2022/09/19 10:16:18;;;;;;;4.45;2.58;;;;;;;19.24;42.21;94671.47;4994962;28;20310;-76
2022/09/19 10:18:52;;;;;;;7.15;2.40;;;;;;;19.09;40.56;94661.63;4994931;28;20234;-75
2022/09/19 10:21:18;;;;;;;8.70;2.63;;;;;;;18.96;42.52;94646.13;4994798;28;20613;-76
2022/09/19 10:23:45;;;;;;;3.63;2.47;;;;;;;19.00;41.75;94651.75;4994734;28;20157;-76
2022/09/19 10:26:15;;;;;;;6.57;2.83;;;;;;;18.75;43.56;94632.03;4994367;28;20169;-75
2022/09/19 10:28:52;;;;;;;11.38;3.10;;;;;;;18.70;42.44;94658.69;4994365;28;20657;-75
2022/09/19 10:31:23;;;;;;;3.78;2.30;;;;;;;18.80;43.22;94647.22;4994267;28;20215;-75
2022/09/19 10:33:50;;;;;;;8.02;2.47;;;;;;;18.85;40.97;94642.66;4993614;28;20180;-74
2022/09/19 10:36:25;;;;;;;11.27;2.33;;;;;;;19.05;41.07;94641.06;4976304;28;20272;-74
2022/09/19 10:38:58;;;;;;;5.55;2.75;;;;;;;19.07;42.17;94628.25;4994060;28;20152;-75
2022/09/19 10:41:26;;;;;;;10.80;3.58;;;;;;;19.14;40.18;94621.56;4993595;28;20181;-75
2022/09/19 10:44:15;;;;;;;5.25;2.40;;;;;;;19.11;39.79;94632.78;4994132;28;20263;-75
2022/09/19 10:46:49;;;;;;;6.65;2.63;;;;;;;18.87;39.55;94614.94;4987006;28;20177;-75
2022/09/19 10:49:22;;;;;;;4.50;2.78;;;;;;;18.77;39.89;94618.41;4993809;28;20235;-75
2022/09/19 10:51:51;;;;;;;4.70;2.28;;;;;;;18.85;41.20;94615.22;4992555;28;20174;-75
2022/09/19 10:54:40;;;;;;;7.38;2.70;;;;;;;18.83;40.32;94620.81;4993748;28;20188;-74
2022/09/19 10:57:36;;;;;;;4.10;2.42;;;;;;;18.79;39.50;94613.59;4993572;28;20204;-74
2022/09/19 11:00:03;;;;;;;3.67;2.05;;;;;;;18.77;40.26;94603.19;4988818;28;20256;-74
2022/09/19 11:02:29;;;;;;;3.63;2.05;;;;;;;18.90;39.21;94606.41;4993361;28;20183;-73
2022/09/19 11:05:00;;;;;;;5.95;2.20;;;;;;;18.66;38.97;94588.28;5006536;28;20185;-73
2022/09/19 11:07:30;;;;;;;6.38;1.92;;;;;;;18.54;41.55;94592.25;5012608;28;20628;-73
2022/09/19 11:10:03;;;;;;;7.38;2.22;;;;;;;18.67;39.34;94583.75;5011347;28;20288;-74
2022/09/19 11:12:30;;;;;;;3.97;2.35;;;;;;;18.75;38.58;94577.88;5010592;28;20207;-73
2022/09/19 11:14:59;;;;;;;2.58;1.70;;;;;;;18.90;38.45;94583.19;5010468;28;20232;-73
2022/09/19 11:17:30;;;;;;;2.90;1.60;;;;;;;19.03;36.97;94579.97;5010830;28;20643;-73
2022/09/19 11:20:16;;;;;;;6.03;2.00;;;;;;;19.13;37.60;94571.94;5011643;28;20574;-74
2022/09/19 11:23:14;;;;;;;3.20;1.60;;;;;;;19.35;39.74;94563.59;5011860;28;20205;-74
2022/09/19 11:26:08;;;;;;;7.07;1.90;;;;;;;19.57;39.74;94566.75;5012423;28;20165;-73
2022/09/19 11:28:36;;;;;;;2.80;1.48;;;;;;;19.55;35.64;94560.88;5012188;28;20676;-74
2022/09/19 11:31:46;;;;;;;6.80;2.20;;;;;;;19.56;36.35;94559.81;5012128;28;20200;-74
2022/09/19 11:34:26;;;;;;;5.95;1.70;;;;;;;19.64;35.11;94557.63;5012136;28;20224;-73
2022/09/19 11:37:27;;;;;;;6.70;1.50;;;;;;;19.77;32.57;94549.03;5012115;28;20685;-74
2022/09/19 11:40:11;;;;;;;3.78;1.48;;;;;;;19.69;33.03;94550.41;5012373;28;20258;-73
2022/09/19 11:42:39;;;;;;;4.38;1.95;;;;;;;19.63;33.00;94543.50;5012023;28;20702;-73
2022/09/19 11:45:15;;;;;;;2.75;1.70;;;;;;;19.59;33.99;94550.44;5008774;28;20200;-74
2022/09/19 11:47:50;;;;;;;2.20;1.40;;;;;;;19.70;36.59;94548.53;4997724;28;20539;-73
2022/09/19 11:50:29;;;;;;;3.50;1.50;;;;;;;19.81;34.03;94539.38;5010425;28;20203;-74
2022/09/19 11:53:13;;;;;;;5.47;1.60;;;;;;;19.95;35.61;94541.19;5011709;28;20192;-74
2022/09/19 11:56:00;;;;;;;3.78;1.50;;;;;;;20.07;35.89;94538.16;5011912;28;20168;-73
2022/09/19 11:59:13;;;;;;;4.90;1.75;;;;;;;20.18;34.67;94544.22;5011864;28;20180;-73
2022/09/19 12:02:06;;;;;;;3.30;1.40;;;;;;;20.25;35.46;94542.03;4937636;28;20180;-74
2022/09/19 12:04:42;;;;;;;6.38;1.52;;;;;;;20.34;35.04;94543.06;5011525;28;20176;-74
2022/09/19 12:07:25;;;;;;;6.10;1.73;;;;;;;20.48;32.85;94538.69;5011572;28;20219;-73
2022/09/19 12:09:55;;;;;;;8.73;2.03;;;;;;;20.40;31.55;94509.88;5011471;28;20646;-74
2022/09/19 12:12:25;;;;;;;7.45;1.95;;;;;;;20.46;33.44;94524.81;5010118;28;20686;-73
2022/09/19 12:15:14;;;;;;;8.18;1.50;;;;;;;20.28;31.37;94512.88;5011266;28;20224;-74
2022/09/19 12:17:43;;;;;;;4.13;1.70;;;;;;;20.08;32.98;94486.28;5011658;28;20231;-73